sensor_id;sensor_type;location;lat;lon;timestamp;P1;durP1;ratioP1;P2;durP2;ratioP2
5175;SDS011;2607;50.934;6.934;2022-08-19T00:00:03;8.40;;;7.70;;
5175;SDS011;2607;50.934;6.934;2022-08-19T00:02:32;13.40;;;8.97;;
5175;SDS011;2607;50.934;6.934;2022-08-19T00:04:58;11.70;;;7.60;;
5175;SDS011;2607;50.934;6.934;2022-08-19T00:07:23;8.73;;;8.03;;
5175;SDS011;2607;50.934;6.934;2022-08-19T00:09:49;9.10;;;8.30;;
5175;SDS011;2607;50.934;6.934;2022-08-19T00:12:15;7.73;;;7.23;;
5175;SDS011;2607;50.934;6.934;2022-08-19T00:14:40;13.13;;;8.20;;
5175;SDS011;2607;50.934;6.934;2022-08-19T00:17:06;10.33;;;7.23;;
5175;SDS011;2607;50.934;6.934;2022-08-19T00:19:33;9.10;;;8.40;;
5175;SDS011;2607;50.934;6.934;2022-08-19T00:21:59;9.60;;;8.70;;
5175;SDS011;2607;50.934;6.934;2022-08-19T00:24:25;8.47;;;7.73;;
5175;SDS011;2607;50.934;6.934;2022-08-19T00:26:52;12.33;;;8.40;;
5175;SDS011;2607;50.934;6.934;2022-08-19T00:29:18;17.53;;;8.63;;
5175;SDS011;2607;50.934;6.934;2022-08-19T00:31:45;8.67;;;7.67;;
5175;SDS011;2607;50.934;6.934;2022-08-19T00:34:12;9.80;;;8.90;;
5175;SDS011;2607;50.934;6.934;2022-08-19T00:36:39;9.40;;;8.67;;
5175;SDS011;2607;50.934;6.934;2022-08-19T00:39:07;10.30;;;8.40;;
5175;SDS011;2607;50.934;6.934;2022-08-19T00:41:33;11.03;;;8.93;;
5175;SDS011;2607;50.934;6.934;2022-08-19T00:44:00;20.23;;;7.80;;
5175;SDS011;2607;50.934;6.934;2022-08-19T00:46:31;9.20;;;8.23;;
5175;SDS011;2607;50.934;6.934;2022-08-19T00:49:00;8.37;;;7.20;;
5175;SDS011;2607;50.934;6.934;2022-08-19T00:51:31;9.00;;;8.20;;
5175;SDS011;2607;50.934;6.934;2022-08-19T00:53:57;9.23;;;8.40;;
5175;SDS011;2607;50.934;6.934;2022-08-19T00:56:25;10.07;;;9.03;;
5175;SDS011;2607;50.934;6.934;2022-08-19T00:58:52;9.37;;;8.63;;
5175;SDS011;2607;50.934;6.934;2022-08-19T01:01:19;9.43;;;8.27;;
5175;SDS011;2607;50.934;6.934;2022-08-19T01:03:45;10.27;;;9.43;;
5175;SDS011;2607;50.934;6.934;2022-08-19T01:06:10;13.23;;;9.07;;
5175;SDS011;2607;50.934;6.934;2022-08-19T01:08:36;9.63;;;8.93;;
5175;SDS011;2607;50.934;6.934;2022-08-19T01:11:02;9.93;;;9.00;;
5175;SDS011;2607;50.934;6.934;2022-08-19T01:13:30;9.20;;;8.50;;
5175;SDS011;2607;50.934;6.934;2022-08-19T01:15:59;10.80;;;9.73;;
5175;SDS011;2607;50.934;6.934;2022-08-19T01:18:28;11.73;;;10.03;;
5175;SDS011;2607;50.934;6.934;2022-08-19T01:20:56;10.83;;;9.70;;
5175;SDS011;2607;50.934;6.934;2022-08-19T01:23:26;14.73;;;9.40;;
5175;SDS011;2607;50.934;6.934;2022-08-19T01:26:07;10.63;;;9.47;;
5175;SDS011;2607;50.934;6.934;2022-08-19T01:28:35;10.90;;;9.70;;
5175;SDS011;2607;50.934;6.934;2022-08-19T01:31:02;11.37;;;9.57;;
5175;SDS011;2607;50.934;6.934;2022-08-19T01:33:28;11.60;;;8.77;;
5175;SDS011;2607;50.934;6.934;2022-08-19T01:36:03;10.33;;;9.40;;
5175;SDS011;2607;50.934;6.934;2022-08-19T01:38:35;10.27;;;9.23;;
5175;SDS011;2607;50.934;6.934;2022-08-19T01:41:03;10.10;;;9.03;;
5175;SDS011;2607;50.934;6.934;2022-08-19T01:43:29;12.37;;;10.37;;
5175;SDS011;2607;50.934;6.934;2022-08-19T01:45:55;9.90;;;8.87;;
5175;SDS011;2607;50.934;6.934;2022-08-19T01:48:20;10.13;;;9.13;;
5175;SDS011;2607;50.934;6.934;2022-08-19T01:50:46;10.87;;;9.57;;
5175;SDS011;2607;50.934;6.934;2022-08-19T01:53:13;13.77;;;10.33;;
5175;SDS011;2607;50.934;6.934;2022-08-19T01:55:40;10.07;;;9.03;;
5175;SDS011;2607;50.934;6.934;2022-08-19T01:58:08;9.83;;;8.83;;
5175;SDS011;2607;50.934;6.934;2022-08-19T02:00:41;11.10;;;8.90;;
5175;SDS011;2607;50.934;6.934;2022-08-19T02:03:08;14.77;;;10.43;;
5175;SDS011;2607;50.934;6.934;2022-08-19T02:05:34;12.37;;;10.03;;
5175;SDS011;2607;50.934;6.934;2022-08-19T02:08:00;10.10;;;9.10;;
5175;SDS011;2607;50.934;6.934;2022-08-19T02:10:26;10.50;;;9.60;;
5175;SDS011;2607;50.934;6.934;2022-08-19T02:12:51;9.93;;;9.17;;
5175;SDS011;2607;50.934;6.934;2022-08-19T02:15:17;10.33;;;9.43;;
5175;SDS011;2607;50.934;6.934;2022-08-19T02:17:44;11.40;;;10.30;;
5175;SDS011;2607;50.934;6.934;2022-08-19T02:20:10;12.10;;;10.10;;
5175;SDS011;2607;50.934;6.934;2022-08-19T02:22:37;10.87;;;9.97;;
5175;SDS011;2607;50.934;6.934;2022-08-19T02:25:03;14.80;;;9.87;;
5175;SDS011;2607;50.934;6.934;2022-08-19T02:27:29;10.63;;;9.60;;
5175;SDS011;2607;50.934;6.934;2022-08-19T02:29:55;11.40;;;10.30;;
5175;SDS011;2607;50.934;6.934;2022-08-19T02:32:21;10.93;;;10.00;;
5175;SDS011;2607;50.934;6.934;2022-08-19T02:34:47;10.57;;;9.53;;
5175;SDS011;2607;50.934;6.934;2022-08-19T02:37:13;11.53;;;9.87;;
5175;SDS011;2607;50.934;6.934;2022-08-19T02:39:57;12.70;;;10.83;;
5175;SDS011;2607;50.934;6.934;2022-08-19T02:42:23;13.00;;;11.70;;
5175;SDS011;2607;50.934;6.934;2022-08-19T02:44:50;12.50;;;9.77;;
5175;SDS011;2607;50.934;6.934;2022-08-19T02:47:16;11.27;;;10.20;;
5175;SDS011;2607;50.934;6.934;2022-08-19T02:49:43;16.63;;;11.10;;
5175;SDS011;2607;50.934;6.934;2022-08-19T02:52:10;12.97;;;11.67;;
5175;SDS011;2607;50.934;6.934;2022-08-19T02:54:36;13.30;;;10.80;;
5175;SDS011;2607;50.934;6.934;2022-08-19T02:57:03;13.23;;;10.03;;
5175;SDS011;2607;50.934;6.934;2022-08-19T02:59:29;12.73;;;11.43;;
5175;SDS011;2607;50.934;6.934;2022-08-19T03:01:56;13.37;;;10.27;;
5175;SDS011;2607;50.934;6.934;2022-08-19T03:04:21;15.30;;;10.93;;
5175;SDS011;2607;50.934;6.934;2022-08-19T03:06:47;23.47;;;12.83;;
5175;SDS011;2607;50.934;6.934;2022-08-19T03:09:13;13.50;;;11.10;;
5175;SDS011;2607;50.934;6.934;2022-08-19T03:11:40;15.97;;;11.80;;
5175;SDS011;2607;50.934;6.934;2022-08-19T03:14:06;16.83;;;11.67;;
5175;SDS011;2607;50.934;6.934;2022-08-19T03:16:35;16.77;;;11.40;;
5175;SDS011;2607;50.934;6.934;2022-08-19T03:19:09;12.10;;;10.00;;
5175;SDS011;2607;50.934;6.934;2022-08-19T03:21:34;15.00;;;11.60;;
5175;SDS011;2607;50.934;6.934;2022-08-19T03:24:04;16.83;;;15.07;;
5175;SDS011;2607;50.934;6.934;2022-08-19T03:26:32;15.77;;;12.83;;
5175;SDS011;2607;50.934;6.934;2022-08-19T03:29:01;17.60;;;9.83;;
5175;SDS011;2607;50.934;6.934;2022-08-19T03:31:29;16.60;;;11.17;;
5175;SDS011;2607;50.934;6.934;2022-08-19T03:33:56;15.63;;;10.40;;
5175;SDS011;2607;50.934;6.934;2022-08-19T03:36:23;13.70;;;11.20;;
5175;SDS011;2607;50.934;6.934;2022-08-19T03:38:53;20.40;;;12.27;;
5175;SDS011;2607;50.934;6.934;2022-08-19T03:41:22;13.40;;;12.10;;
5175;SDS011;2607;50.934;6.934;2022-08-19T03:43:56;21.87;;;12.70;;
5175;SDS011;2607;50.934;6.934;2022-08-19T03:46:23;13.53;;;12.13;;
5175;SDS011;2607;50.934;6.934;2022-08-19T03:48:51;13.37;;;12.07;;
5175;SDS011;2607;50.934;6.934;2022-08-19T03:51:22;14.03;;;12.63;;
5175;SDS011;2607;50.934;6.934;2022-08-19T03:54:00;17.03;;;12.40;;
5175;SDS011;2607;50.934;6.934;2022-08-19T03:56:27;14.00;;;12.40;;
5175;SDS011;2607;50.934;6.934;2022-08-19T03:58:54;14.47;;;12.93;;
5175;SDS011;2607;50.934;6.934;2022-08-19T04:01:22;14.73;;;11.53;;
5175;SDS011;2607;50.934;6.934;2022-08-19T04:03:53;14.63;;;12.37;;
5175;SDS011;2607;50.934;6.934;2022-08-19T04:06:25;17.50;;;13.00;;
5175;SDS011;2607;50.934;6.934;2022-08-19T04:08:54;16.23;;;13.93;;
5175;SDS011;2607;50.934;6.934;2022-08-19T04:11:24;21.77;;;14.03;;
5175;SDS011;2607;50.934;6.934;2022-08-19T04:13:52;17.13;;;14.80;;
5175;SDS011;2607;50.934;6.934;2022-08-19T04:16:20;22.20;;;16.13;;
5175;SDS011;2607;50.934;6.934;2022-08-19T04:18:47;19.40;;;15.03;;
5175;SDS011;2607;50.934;6.934;2022-08-19T04:21:16;16.73;;;15.00;;
5175;SDS011;2607;50.934;6.934;2022-08-19T04:23:44;23.10;;;16.20;;
5175;SDS011;2607;50.934;6.934;2022-08-19T04:26:14;23.10;;;16.20;;
5175;SDS011;2607;50.934;6.934;2022-08-19T04:28:42;19.03;;;16.07;;
5175;SDS011;2607;50.934;6.934;2022-08-19T04:31:12;18.07;;;15.17;;
5175;SDS011;2607;50.934;6.934;2022-08-19T04:33:39;18.53;;;16.60;;
5175;SDS011;2607;50.934;6.934;2022-08-19T04:36:05;18.30;;;16.33;;
5175;SDS011;2607;50.934;6.934;2022-08-19T04:38:30;22.17;;;18.47;;
5175;SDS011;2607;50.934;6.934;2022-08-19T04:40:56;23.40;;;18.83;;
5175;SDS011;2607;50.934;6.934;2022-08-19T04:43:40;20.77;;;18.53;;
5175;SDS011;2607;50.934;6.934;2022-08-19T04:46:07;23.47;;;19.90;;
5175;SDS011;2607;50.934;6.934;2022-08-19T04:48:34;22.67;;;20.27;;
5175;SDS011;2607;50.934;6.934;2022-08-19T04:51:00;23.33;;;20.83;;
5175;SDS011;2607;50.934;6.934;2022-08-19T04:53:32;22.07;;;19.60;;
5175;SDS011;2607;50.934;6.934;2022-08-19T04:56:02;24.80;;;20.10;;
5175;SDS011;2607;50.934;6.934;2022-08-19T04:58:31;24.00;;;20.33;;
5175;SDS011;2607;50.934;6.934;2022-08-19T05:00:57;24.27;;;19.50;;
5175;SDS011;2607;50.934;6.934;2022-08-19T05:03:25;22.07;;;18.00;;
5175;SDS011;2607;50.934;6.934;2022-08-19T05:05:51;20.70;;;18.23;;
5175;SDS011;2607;50.934;6.934;2022-08-19T05:08:18;22.73;;;19.83;;
5175;SDS011;2607;50.934;6.934;2022-08-19T05:10:49;22.40;;;19.77;;
5175;SDS011;2607;50.934;6.934;2022-08-19T05:13:17;26.73;;;20.03;;
5175;SDS011;2607;50.934;6.934;2022-08-19T05:15:53;33.63;;;23.90;;
5175;SDS011;2607;50.934;6.934;2022-08-19T05:18:20;28.47;;;24.63;;
5175;SDS011;2607;50.934;6.934;2022-08-19T05:21:06;28.10;;;24.53;;
5175;SDS011;2607;50.934;6.934;2022-08-19T05:23:51;29.73;;;24.10;;
5175;SDS011;2607;50.934;6.934;2022-08-19T05:26:17;27.57;;;24.07;;
5175;SDS011;2607;50.934;6.934;2022-08-19T05:28:43;28.07;;;25.03;;
5175;SDS011;2607;50.934;6.934;2022-08-19T05:31:08;27.33;;;23.97;;
5175;SDS011;2607;50.934;6.934;2022-08-19T05:33:34;27.50;;;24.50;;
5175;SDS011;2607;50.934;6.934;2022-08-19T05:36:00;28.07;;;24.50;;
5175;SDS011;2607;50.934;6.934;2022-08-19T05:38:27;32.97;;;25.80;;
5175;SDS011;2607;50.934;6.934;2022-08-19T05:40:53;28.63;;;25.17;;
5175;SDS011;2607;50.934;6.934;2022-08-19T05:43:19;29.30;;;26.07;;
5175;SDS011;2607;50.934;6.934;2022-08-19T05:45:44;30.53;;;27.00;;
5175;SDS011;2607;50.934;6.934;2022-08-19T05:48:10;29.43;;;25.37;;
5175;SDS011;2607;50.934;6.934;2022-08-19T05:50:38;33.03;;;25.07;;
5175;SDS011;2607;50.934;6.934;2022-08-19T05:53:04;32.80;;;27.83;;
5175;SDS011;2607;50.934;6.934;2022-08-19T05:55:30;30.33;;;26.10;;
5175;SDS011;2607;50.934;6.934;2022-08-19T05:57:56;32.47;;;26.93;;
5175;SDS011;2607;50.934;6.934;2022-08-19T06:00:22;30.93;;;26.80;;
5175;SDS011;2607;50.934;6.934;2022-08-19T06:02:48;29.40;;;26.23;;
5175;SDS011;2607;50.934;6.934;2022-08-19T06:05:13;32.83;;;24.97;;
5175;SDS011;2607;50.934;6.934;2022-08-19T06:07:39;30.23;;;26.50;;
5175;SDS011;2607;50.934;6.934;2022-08-19T06:10:05;40.17;;;26.40;;
5175;SDS011;2607;50.934;6.934;2022-08-19T06:12:32;33.30;;;26.60;;
5175;SDS011;2607;50.934;6.934;2022-08-19T06:15:00;34.57;;;24.70;;
5175;SDS011;2607;50.934;6.934;2022-08-19T06:17:28;29.93;;;24.87;;
5175;SDS011;2607;50.934;6.934;2022-08-19T06:19:55;33.27;;;28.13;;
5175;SDS011;2607;50.934;6.934;2022-08-19T06:22:20;30.83;;;26.30;;
5175;SDS011;2607;50.934;6.934;2022-08-19T06:24:46;30.90;;;24.70;;
5175;SDS011;2607;50.934;6.934;2022-08-19T06:27:12;28.07;;;24.73;;
5175;SDS011;2607;50.934;6.934;2022-08-19T06:29:37;30.57;;;26.00;;
5175;SDS011;2607;50.934;6.934;2022-08-19T06:32:03;29.17;;;26.03;;
5175;SDS011;2607;50.934;6.934;2022-08-19T06:34:30;34.37;;;27.10;;
5175;SDS011;2607;50.934;6.934;2022-08-19T06:36:58;30.63;;;26.70;;
5175;SDS011;2607;50.934;6.934;2022-08-19T06:39:26;33.13;;;27.50;;
5175;SDS011;2607;50.934;6.934;2022-08-19T06:41:55;31.20;;;26.40;;
5175;SDS011;2607;50.934;6.934;2022-08-19T06:44:23;31.83;;;27.23;;
5175;SDS011;2607;50.934;6.934;2022-08-19T06:46:51;33.83;;;26.20;;
5175;SDS011;2607;50.934;6.934;2022-08-19T06:49:16;35.27;;;27.63;;
5175;SDS011;2607;50.934;6.934;2022-08-19T06:51:43;32.30;;;27.40;;
5175;SDS011;2607;50.934;6.934;2022-08-19T06:54:12;36.80;;;27.27;;
5175;SDS011;2607;50.934;6.934;2022-08-19T06:56:38;38.97;;;26.67;;
5175;SDS011;2607;50.934;6.934;2022-08-19T06:59:06;32.97;;;24.80;;
5175;SDS011;2607;50.934;6.934;2022-08-19T07:01:37;32.13;;;27.10;;
5175;SDS011;2607;50.934;6.934;2022-08-19T07:04:05;37.00;;;27.20;;
5175;SDS011;2607;50.934;6.934;2022-08-19T07:06:32;35.53;;;27.40;;
5175;SDS011;2607;50.934;6.934;2022-08-19T07:08:57;34.97;;;26.10;;
5175;SDS011;2607;50.934;6.934;2022-08-19T07:11:23;33.03;;;25.20;;
5175;SDS011;2607;50.934;6.934;2022-08-19T07:13:49;30.13;;;25.17;;
5175;SDS011;2607;50.934;6.934;2022-08-19T07:16:16;28.97;;;24.03;;
5175;SDS011;2607;50.934;6.934;2022-08-19T07:18:47;32.03;;;25.60;;
5175;SDS011;2607;50.934;6.934;2022-08-19T07:21:15;30.50;;;23.47;;
5175;SDS011;2607;50.934;6.934;2022-08-19T07:23:46;38.43;;;24.50;;
5175;SDS011;2607;50.934;6.934;2022-08-19T07:26:14;25.67;;;22.23;;
5175;SDS011;2607;50.934;6.934;2022-08-19T07:29:00;28.97;;;22.00;;
5175;SDS011;2607;50.934;6.934;2022-08-19T07:31:27;26.93;;;19.93;;
5175;SDS011;2607;50.934;6.934;2022-08-19T07:33:53;31.60;;;22.67;;
5175;SDS011;2607;50.934;6.934;2022-08-19T07:36:21;28.17;;;24.17;;
5175;SDS011;2607;50.934;6.934;2022-08-19T07:38:49;30.20;;;22.17;;
5175;SDS011;2607;50.934;6.934;2022-08-19T07:41:23;34.97;;;24.07;;
5175;SDS011;2607;50.934;6.934;2022-08-19T07:43:50;35.70;;;25.33;;
5175;SDS011;2607;50.934;6.934;2022-08-19T07:46:17;27.80;;;24.77;;
5175;SDS011;2607;50.934;6.934;2022-08-19T07:48:45;29.77;;;24.90;;
5175;SDS011;2607;50.934;6.934;2022-08-19T07:51:12;29.20;;;24.50;;
5175;SDS011;2607;50.934;6.934;2022-08-19T07:53:40;32.00;;;26.80;;
5175;SDS011;2607;50.934;6.934;2022-08-19T07:56:08;33.20;;;26.33;;
5175;SDS011;2607;50.934;6.934;2022-08-19T07:58:35;33.07;;;25.73;;
5175;SDS011;2607;50.934;6.934;2022-08-19T08:01:04;36.27;;;27.47;;
5175;SDS011;2607;50.934;6.934;2022-08-19T08:03:30;36.93;;;26.90;;
5175;SDS011;2607;50.934;6.934;2022-08-19T08:06:15;37.17;;;28.53;;
5175;SDS011;2607;50.934;6.934;2022-08-19T08:08:59;39.70;;;27.67;;
5175;SDS011;2607;50.934;6.934;2022-08-19T08:11:48;36.67;;;28.00;;
5175;SDS011;2607;50.934;6.934;2022-08-19T08:14:20;34.90;;;26.27;;
5175;SDS011;2607;50.934;6.934;2022-08-19T08:16:49;35.90;;;28.00;;
5175;SDS011;2607;50.934;6.934;2022-08-19T08:19:16;37.73;;;29.60;;
5175;SDS011;2607;50.934;6.934;2022-08-19T08:21:47;44.57;;;30.33;;
5175;SDS011;2607;50.934;6.934;2022-08-19T08:24:14;39.60;;;29.40;;
5175;SDS011;2607;50.934;6.934;2022-08-19T08:26:40;40.90;;;30.70;;
5175;SDS011;2607;50.934;6.934;2022-08-19T08:29:08;39.53;;;29.87;;
5175;SDS011;2607;50.934;6.934;2022-08-19T08:31:38;44.60;;;30.30;;
5175;SDS011;2607;50.934;6.934;2022-08-19T08:34:05;41.07;;;30.57;;
5175;SDS011;2607;50.934;6.934;2022-08-19T08:36:30;38.73;;;29.90;;
5175;SDS011;2607;50.934;6.934;2022-08-19T08:38:58;45.80;;;31.67;;
5175;SDS011;2607;50.934;6.934;2022-08-19T08:43:53;46.53;;;33.47;;
5175;SDS011;2607;50.934;6.934;2022-08-19T08:46:39;39.83;;;28.60;;
5175;SDS011;2607;50.934;6.934;2022-08-19T08:54:48;44.53;;;32.63;;
5175;SDS011;2607;50.934;6.934;2022-08-19T08:57:29;49.63;;;34.80;;
5175;SDS011;2607;50.934;6.934;2022-08-19T09:00:09;45.50;;;33.80;;
5175;SDS011;2607;50.934;6.934;2022-08-19T09:02:39;48.70;;;35.07;;
5175;SDS011;2607;50.934;6.934;2022-08-19T09:05:05;49.67;;;35.13;;
5175;SDS011;2607;50.934;6.934;2022-08-19T09:10:29;52.20;;;33.67;;
5175;SDS011;2607;50.934;6.934;2022-08-19T09:13:01;37.40;;;29.57;;
5175;SDS011;2607;50.934;6.934;2022-08-19T09:15:49;37.53;;;27.43;;
5175;SDS011;2607;50.934;6.934;2022-08-19T09:18:23;30.70;;;24.47;;
5175;SDS011;2607;50.934;6.934;2022-08-19T09:20:48;33.20;;;23.83;;
5175;SDS011;2607;50.934;6.934;2022-08-19T09:23:14;29.00;;;21.97;;
5175;SDS011;2607;50.934;6.934;2022-08-19T09:25:40;35.13;;;24.97;;
5175;SDS011;2607;50.934;6.934;2022-08-19T09:28:06;33.90;;;25.20;;
5175;SDS011;2607;50.934;6.934;2022-08-19T09:30:34;35.63;;;23.70;;
5175;SDS011;2607;50.934;6.934;2022-08-19T09:33:04;28.97;;;22.20;;
5175;SDS011;2607;50.934;6.934;2022-08-19T09:35:31;24.87;;;21.80;;
5175;SDS011;2607;50.934;6.934;2022-08-19T09:37:58;39.33;;;30.00;;
5175;SDS011;2607;50.934;6.934;2022-08-19T09:40:24;37.70;;;28.07;;
5175;SDS011;2607;50.934;6.934;2022-08-19T09:42:50;27.80;;;24.33;;
5175;SDS011;2607;50.934;6.934;2022-08-19T09:45:17;31.83;;;24.07;;
5175;SDS011;2607;50.934;6.934;2022-08-19T09:47:46;31.30;;;24.40;;
5175;SDS011;2607;50.934;6.934;2022-08-19T09:50:13;29.07;;;21.17;;
5175;SDS011;2607;50.934;6.934;2022-08-19T09:52:39;26.47;;;19.70;;
5175;SDS011;2607;50.934;6.934;2022-08-19T09:55:07;21.37;;;17.37;;
5175;SDS011;2607;50.934;6.934;2022-08-19T09:57:34;20.13;;;18.00;;
5175;SDS011;2607;50.934;6.934;2022-08-19T10:00:00;18.17;;;15.90;;
5175;SDS011;2607;50.934;6.934;2022-08-19T10:02:26;20.43;;;15.73;;
5175;SDS011;2607;50.934;6.934;2022-08-19T10:04:51;19.37;;;16.97;;
5175;SDS011;2607;50.934;6.934;2022-08-19T10:07:36;23.00;;;16.77;;
5175;SDS011;2607;50.934;6.934;2022-08-19T10:10:05;21.50;;;18.50;;
5175;SDS011;2607;50.934;6.934;2022-08-19T10:12:33;24.10;;;20.63;;
5175;SDS011;2607;50.934;6.934;2022-08-19T10:14:59;14.27;;;12.87;;
5175;SDS011;2607;50.934;6.934;2022-08-19T10:17:25;15.53;;;12.63;;
5175;SDS011;2607;50.934;6.934;2022-08-19T10:19:51;14.87;;;13.30;;
5175;SDS011;2607;50.934;6.934;2022-08-19T10:22:17;16.33;;;14.23;;
5175;SDS011;2607;50.934;6.934;2022-08-19T10:24:43;14.53;;;13.03;;
5175;SDS011;2607;50.934;6.934;2022-08-19T10:27:08;19.03;;;15.70;;
5175;SDS011;2607;50.934;6.934;2022-08-19T10:29:35;19.40;;;14.67;;
5175;SDS011;2607;50.934;6.934;2022-08-19T10:32:01;23.67;;;19.47;;
5175;SDS011;2607;50.934;6.934;2022-08-19T10:34:29;21.23;;;13.57;;
5175;SDS011;2607;50.934;6.934;2022-08-19T10:36:55;48.77;;;34.80;;
5175;SDS011;2607;50.934;6.934;2022-08-19T10:39:22;17.80;;;16.00;;
5175;SDS011;2607;50.934;6.934;2022-08-19T10:41:47;18.83;;;14.50;;
5175;SDS011;2607;50.934;6.934;2022-08-19T10:44:13;19.43;;;16.50;;
5175;SDS011;2607;50.934;6.934;2022-08-19T10:46:41;14.80;;;13.40;;
5175;SDS011;2607;50.934;6.934;2022-08-19T10:49:10;15.73;;;13.10;;
5175;SDS011;2607;50.934;6.934;2022-08-19T10:51:37;23.30;;;16.30;;
5175;SDS011;2607;50.934;6.934;2022-08-19T10:54:22;19.30;;;15.33;;
5175;SDS011;2607;50.934;6.934;2022-08-19T10:56:48;21.97;;;15.90;;
5175;SDS011;2607;50.934;6.934;2022-08-19T10:59:17;31.30;;;18.30;;
5175;SDS011;2607;50.934;6.934;2022-08-19T11:01:48;17.13;;;15.37;;
5175;SDS011;2607;50.934;6.934;2022-08-19T11:04:13;19.63;;;16.20;;
5175;SDS011;2607;50.934;6.934;2022-08-19T11:06:42;16.33;;;14.73;;
5175;SDS011;2607;50.934;6.934;2022-08-19T11:09:12;19.03;;;15.80;;
5175;SDS011;2607;50.934;6.934;2022-08-19T11:11:40;24.13;;;15.43;;
5175;SDS011;2607;50.934;6.934;2022-08-19T11:14:07;16.87;;;15.27;;
5175;SDS011;2607;50.934;6.934;2022-08-19T11:16:36;17.23;;;15.20;;
5175;SDS011;2607;50.934;6.934;2022-08-19T11:19:04;14.30;;;12.90;;
5175;SDS011;2607;50.934;6.934;2022-08-19T11:21:33;14.50;;;11.17;;
5175;SDS011;2607;50.934;6.934;2022-08-19T11:24:03;12.17;;;11.07;;
5175;SDS011;2607;50.934;6.934;2022-08-19T11:26:32;13.20;;;11.87;;
5175;SDS011;2607;50.934;6.934;2022-08-19T11:28:59;13.17;;;12.00;;
5175;SDS011;2607;50.934;6.934;2022-08-19T11:31:29;17.20;;;12.97;;
5175;SDS011;2607;50.934;6.934;2022-08-19T11:33:56;16.13;;;11.70;;
5175;SDS011;2607;50.934;6.934;2022-08-19T11:36:28;12.13;;;11.03;;
5175;SDS011;2607;50.934;6.934;2022-08-19T11:38:54;12.50;;;11.17;;
5175;SDS011;2607;50.934;6.934;2022-08-19T11:41:21;12.93;;;10.70;;
5175;SDS011;2607;50.934;6.934;2022-08-19T11:43:48;10.87;;;9.87;;
5175;SDS011;2607;50.934;6.934;2022-08-19T11:46:15;14.27;;;11.07;;
5175;SDS011;2607;50.934;6.934;2022-08-19T11:48:41;10.43;;;9.47;;
5175;SDS011;2607;50.934;6.934;2022-08-19T11:51:08;12.57;;;8.90;;
5175;SDS011;2607;50.934;6.934;2022-08-19T11:53:36;10.60;;;9.60;;
5175;SDS011;2607;50.934;6.934;2022-08-19T11:56:03;10.73;;;9.67;;
5175;SDS011;2607;50.934;6.934;2022-08-19T11:58:32;11.67;;;10.57;;
5175;SDS011;2607;50.934;6.934;2022-08-19T12:00:59;12.20;;;10.67;;
5175;SDS011;2607;50.934;6.934;2022-08-19T12:03:24;10.63;;;9.40;;
5175;SDS011;2607;50.934;6.934;2022-08-19T12:05:50;11.63;;;9.37;;
5175;SDS011;2607;50.934;6.934;2022-08-19T12:08:16;10.27;;;8.70;;
5175;SDS011;2607;50.934;6.934;2022-08-19T12:10:43;8.93;;;8.13;;
5175;SDS011;2607;50.934;6.934;2022-08-19T12:13:11;10.27;;;9.30;;
5175;SDS011;2607;50.934;6.934;2022-08-19T12:15:40;9.83;;;9.03;;
5175;SDS011;2607;50.934;6.934;2022-08-19T12:18:06;9.17;;;8.13;;
5175;SDS011;2607;50.934;6.934;2022-08-19T12:20:34;11.10;;;8.30;;
5175;SDS011;2607;50.934;6.934;2022-08-19T12:23:02;8.90;;;8.20;;
5175;SDS011;2607;50.934;6.934;2022-08-19T12:25:28;8.67;;;7.87;;
5175;SDS011;2607;50.934;6.934;2022-08-19T12:27:54;8.37;;;7.70;;
5175;SDS011;2607;50.934;6.934;2022-08-19T12:30:19;9.40;;;8.50;;
5175;SDS011;2607;50.934;6.934;2022-08-19T12:32:45;10.40;;;9.30;;
5175;SDS011;2607;50.934;6.934;2022-08-19T12:35:11;8.37;;;7.50;;
5175;SDS011;2607;50.934;6.934;2022-08-19T12:37:37;8.03;;;7.13;;
5175;SDS011;2607;50.934;6.934;2022-08-19T12:40:03;9.03;;;8.13;;
5175;SDS011;2607;50.934;6.934;2022-08-19T12:42:30;9.23;;;8.30;;
5175;SDS011;2607;50.934;6.934;2022-08-19T12:44:55;8.73;;;8.03;;
5175;SDS011;2607;50.934;6.934;2022-08-19T12:47:21;9.27;;;8.20;;
5175;SDS011;2607;50.934;6.934;2022-08-19T12:49:47;9.40;;;8.60;;
5175;SDS011;2607;50.934;6.934;2022-08-19T12:52:14;9.90;;;8.13;;
5175;SDS011;2607;50.934;6.934;2022-08-19T12:54:41;12.57;;;10.20;;
5175;SDS011;2607;50.934;6.934;2022-08-19T12:57:08;8.83;;;7.83;;
5175;SDS011;2607;50.934;6.934;2022-08-19T12:59:35;7.87;;;7.17;;
5175;SDS011;2607;50.934;6.934;2022-08-19T13:02:03;12.10;;;8.40;;
5175;SDS011;2607;50.934;6.934;2022-08-19T13:04:31;12.10;;;8.90;;
5175;SDS011;2607;50.934;6.934;2022-08-19T13:06:58;9.97;;;9.07;;
5175;SDS011;2607;50.934;6.934;2022-08-19T13:09:23;12.40;;;9.07;;
5175;SDS011;2607;50.934;6.934;2022-08-19T13:11:49;9.67;;;8.77;;
5175;SDS011;2607;50.934;6.934;2022-08-19T13:14:14;8.10;;;6.67;;
5175;SDS011;2607;50.934;6.934;2022-08-19T13:16:40;8.93;;;8.03;;
5175;SDS011;2607;50.934;6.934;2022-08-19T13:19:06;8.90;;;8.10;;
5175;SDS011;2607;50.934;6.934;2022-08-19T13:21:32;8.57;;;7.80;;
5175;SDS011;2607;50.934;6.934;2022-08-19T13:23:58;8.50;;;7.07;;
5175;SDS011;2607;50.934;6.934;2022-08-19T13:26:24;12.93;;;6.83;;
5175;SDS011;2607;50.934;6.934;2022-08-19T13:28:49;7.67;;;6.97;;
5175;SDS011;2607;50.934;6.934;2022-08-19T13:31:34;14.23;;;12.70;;
5175;SDS011;2607;50.934;6.934;2022-08-19T13:34:25;9.13;;;8.00;;
5175;SDS011;2607;50.934;6.934;2022-08-19T13:36:59;9.70;;;8.70;;
5175;SDS011;2607;50.934;6.934;2022-08-19T13:39:25;7.27;;;6.57;;
5175;SDS011;2607;50.934;6.934;2022-08-19T13:41:50;8.27;;;7.47;;
5175;SDS011;2607;50.934;6.934;2022-08-19T13:44:16;7.10;;;6.37;;
5175;SDS011;2607;50.934;6.934;2022-08-19T13:46:46;10.40;;;6.70;;
5175;SDS011;2607;50.934;6.934;2022-08-19T13:49:13;7.77;;;7.07;;
5175;SDS011;2607;50.934;6.934;2022-08-19T13:51:40;11.30;;;9.30;;
5175;SDS011;2607;50.934;6.934;2022-08-19T13:54:07;14.73;;;7.17;;
5175;SDS011;2607;50.934;6.934;2022-08-19T13:56:35;7.43;;;6.80;;
5175;SDS011;2607;50.934;6.934;2022-08-19T13:59:08;24.53;;;19.50;;
5175;SDS011;2607;50.934;6.934;2022-08-19T14:01:34;13.90;;;12.43;;
5175;SDS011;2607;50.934;6.934;2022-08-19T14:04:01;11.33;;;10.33;;
5175;SDS011;2607;50.934;6.934;2022-08-19T14:06:27;10.97;;;7.50;;
5175;SDS011;2607;50.934;6.934;2022-08-19T14:08:52;12.67;;;10.57;;
5175;SDS011;2607;50.934;6.934;2022-08-19T14:11:18;14.00;;;12.10;;
5175;SDS011;2607;50.934;6.934;2022-08-19T14:13:44;11.60;;;9.53;;
5175;SDS011;2607;50.934;6.934;2022-08-19T14:16:10;10.60;;;7.47;;
5175;SDS011;2607;50.934;6.934;2022-08-19T14:18:37;10.33;;;9.40;;
5175;SDS011;2607;50.934;6.934;2022-08-19T14:21:04;7.23;;;6.53;;
5175;SDS011;2607;50.934;6.934;2022-08-19T14:23:31;15.47;;;11.63;;
5175;SDS011;2607;50.934;6.934;2022-08-19T14:26:08;11.67;;;10.03;;
5175;SDS011;2607;50.934;6.934;2022-08-19T14:28:36;9.20;;;6.47;;
5175;SDS011;2607;50.934;6.934;2022-08-19T14:31:02;8.00;;;6.70;;
5175;SDS011;2607;50.934;6.934;2022-08-19T14:33:27;7.00;;;6.30;;
5175;SDS011;2607;50.934;6.934;2022-08-19T14:35:53;9.00;;;6.63;;
5175;SDS011;2607;50.934;6.934;2022-08-19T14:38:18;7.77;;;7.07;;
5175;SDS011;2607;50.934;6.934;2022-08-19T14:40:44;8.17;;;7.30;;
5175;SDS011;2607;50.934;6.934;2022-08-19T14:43:10;14.00;;;6.30;;
5175;SDS011;2607;50.934;6.934;2022-08-19T14:45:37;5.93;;;5.43;;
5175;SDS011;2607;50.934;6.934;2022-08-19T14:48:04;8.17;;;6.00;;
5175;SDS011;2607;50.934;6.934;2022-08-19T14:50:31;8.67;;;5.73;;
5175;SDS011;2607;50.934;6.934;2022-08-19T14:53:02;11.13;;;5.00;;
5175;SDS011;2607;50.934;6.934;2022-08-19T14:55:32;8.43;;;5.60;;
5175;SDS011;2607;50.934;6.934;2022-08-19T14:57:58;5.57;;;4.67;;
5175;SDS011;2607;50.934;6.934;2022-08-19T15:00:24;5.20;;;4.70;;
5175;SDS011;2607;50.934;6.934;2022-08-19T15:02:50;4.80;;;4.40;;
5175;SDS011;2607;50.934;6.934;2022-08-19T15:05:18;5.77;;;5.13;;
5175;SDS011;2607;50.934;6.934;2022-08-19T15:07:43;6.30;;;5.80;;
5175;SDS011;2607;50.934;6.934;2022-08-19T15:10:11;6.83;;;6.13;;